createdAt,value
2023-03-20T00:00:59.739Z,1016.17
2023-03-20T00:02:00.100Z,1016.14
2023-03-20T00:03:00.466Z,1016.14
2023-03-20T00:04:00.927Z,1016.13
2023-03-20T00:05:01.242Z,1016.13
2023-03-20T00:06:01.566Z,1016.10
2023-03-20T00:07:01.914Z,1016.12
2023-03-20T00:08:02.290Z,1016.12
2023-03-20T00:09:06.896Z,1016.09
2023-03-20T00:10:02.943Z,1016.09
2023-03-20T00:11:03.321Z,1016.13
2023-03-20T00:12:03.720Z,1016.09
2023-03-20T00:13:04.009Z,1016.16
2023-03-20T00:14:04.384Z,1016.09
2023-03-20T00:15:04.748Z,1016.15
2023-03-20T00:16:05.108Z,1016.11
2023-03-20T00:17:05.412Z,1016.05
2023-03-20T00:18:05.780Z,1016.06
2023-03-20T00:19:06.155Z,1016.09
2023-03-20T00:20:06.517Z,1016.05
2023-03-20T00:21:06.889Z,1016.04
2023-03-20T00:22:07.243Z,1016.09
2023-03-20T00:23:07.615Z,1016.02
2023-03-20T00:24:07.984Z,1016.12
2023-03-20T00:25:08.303Z,1016.04
2023-03-20T00:26:08.672Z,1016.08
2023-03-20T00:27:09.034Z,1016.06
2023-03-20T00:28:09.394Z,1016.09
2023-03-20T00:29:09.773Z,1016.06
2023-03-20T00:30:10.120Z,1016.07
2023-03-20T00:31:10.598Z,1016.07
2023-03-20T00:32:10.816Z,1016.06
2023-03-20T00:33:11.269Z,1016.05
2023-03-20T00:34:11.548Z,1016.11
2023-03-20T00:35:11.869Z,1016.00
2023-03-20T00:36:12.274Z,1016.02
2023-03-20T00:37:12.595Z,1016.01
2023-03-20T00:38:12.953Z,1016.00
2023-03-20T00:39:13.335Z,1016.02
2023-03-20T00:40:13.729Z,1015.98
2023-03-20T00:41:14.056Z,1015.98
2023-03-20T00:42:14.390Z,1015.98
2023-03-20T00:43:14.751Z,1015.98
2023-03-20T00:44:15.148Z,1015.97
2023-03-20T00:45:15.478Z,1015.99
2023-03-20T00:46:15.924Z,1015.98
2023-03-20T00:47:16.201Z,1015.95
2023-03-20T00:48:16.570Z,1015.96
2023-03-20T00:49:16.988Z,1015.97
2023-03-20T00:50:17.282Z,1015.97
2023-03-20T00:51:17.655Z,1015.97
2023-03-20T00:52:18.009Z,1015.95
2023-03-20T00:53:18.387Z,1015.97
2023-03-20T00:54:18.766Z,1015.98
2023-03-20T00:55:19.087Z,1015.98
2023-03-20T00:56:19.450Z,1016.01
2023-03-20T00:57:19.840Z,1016.02
2023-03-20T00:58:20.174Z,1016.01
2023-03-20T00:59:20.596Z,1016.00
2023-03-20T01:00:20.934Z,1016.05
2023-03-20T01:01:21.255Z,1016.06
2023-03-20T01:02:21.656Z,1016.02
2023-03-20T01:03:21.950Z,1016.03
2023-03-20T01:04:22.331Z,1016.04
2023-03-20T01:05:22.647Z,1016.02
2023-03-20T01:06:23.031Z,1016.04
2023-03-20T01:07:23.382Z,1016.03
2023-03-20T01:08:23.762Z,1016.07
2023-03-20T01:09:24.115Z,1016.09
2023-03-20T01:10:24.428Z,1016.05
2023-03-20T01:11:24.758Z,1016.07
2023-03-20T01:12:25.179Z,1016.06
2023-03-20T01:13:25.469Z,1016.03
2023-03-20T01:14:25.839Z,1016.08
2023-03-20T01:15:26.163Z,1016.08
2023-03-20T01:16:26.546Z,1016.08
2023-03-20T01:17:26.900Z,1016.07
2023-03-20T01:18:27.272Z,1016.10
2023-03-20T01:19:27.666Z,1016.14
2023-03-20T01:20:27.985Z,1016.11
2023-03-20T01:21:28.360Z,1016.13
2023-03-20T01:22:28.728Z,1016.11
2023-03-20T01:23:29.094Z,1016.16
2023-03-20T01:24:29.482Z,1016.09
2023-03-20T01:25:29.826Z,1016.13
2023-03-20T01:26:30.195Z,1016.10
2023-03-20T01:27:30.568Z,1016.13
2023-03-20T01:28:30.896Z,1016.12
2023-03-20T01:29:31.279Z,1016.14
2023-03-20T01:30:31.601Z,1016.08
2023-03-20T01:31:32.015Z,1016.11
2023-03-20T01:32:32.312Z,1016.13
2023-03-20T01:33:32.677Z,1016.16
2023-03-20T01:34:33.067Z,1016.13
2023-03-20T01:35:33.512Z,1016.11
2023-03-20T01:36:33.716Z,1016.12
2023-03-20T01:37:34.133Z,1016.13
2023-03-20T01:38:34.450Z,1016.17
2023-03-20T01:39:34.872Z,1016.21
2023-03-20T01:40:35.165Z,1016.19
2023-03-20T01:41:35.520Z,1016.18
2023-03-20T01:42:35.887Z,1016.21
2023-03-20T01:43:36.249Z,1016.21
2023-03-20T01:44:36.676Z,1016.25
2023-03-20T01:45:37.281Z,1016.27
2023-03-20T01:46:37.308Z,1016.20
2023-03-20T01:47:37.635Z,1016.25
2023-03-20T01:48:38.000Z,1016.23
2023-03-20T01:49:38.407Z,1016.23
2023-03-20T01:50:38.742Z,1016.24
2023-03-20T01:51:39.097Z,1016.24
2023-03-20T01:52:39.460Z,1016.18
2023-03-20T01:53:39.821Z,1016.21
2023-03-20T01:54:40.201Z,1016.22
2023-03-20T01:55:40.528Z,1016.21
2023-03-20T01:56:40.896Z,1016.27
2023-03-20T01:57:41.262Z,1016.22
2023-03-20T01:58:41.628Z,1016.21
2023-03-20T01:59:42.009Z,1016.27
2023-03-20T02:00:42.325Z,1016.28
2023-03-20T02:01:42.717Z,1016.23
2023-03-20T02:02:43.054Z,1016.29
2023-03-20T02:03:43.430Z,1016.27
2023-03-20T02:04:43.821Z,1016.26
2023-03-20T02:05:44.128Z,1016.28
2023-03-20T02:06:44.472Z,1016.22
2023-03-20T02:07:44.845Z,1016.31
2023-03-20T02:08:45.213Z,1016.19
2023-03-20T02:09:45.600Z,1016.23
2023-03-20T02:10:45.903Z,1016.13
2023-03-20T02:11:46.283Z,1016.21
2023-03-20T02:12:46.637Z,1016.20
2023-03-20T02:13:47.002Z,1016.19
2023-03-20T02:14:47.389Z,1016.13
2023-03-20T02:15:47.750Z,1016.16
2023-03-20T02:16:48.165Z,1016.14
2023-03-20T02:17:48.454Z,1016.21
2023-03-20T02:18:48.824Z,1016.17
2023-03-20T02:19:49.205Z,1016.14
2023-03-20T02:20:49.558Z,1016.15
2023-03-20T02:21:49.932Z,1016.24
2023-03-20T02:22:50.296Z,1016.21
2023-03-20T02:23:50.666Z,1016.21
2023-03-20T02:24:51.043Z,1016.26
2023-03-20T02:25:51.376Z,1016.24
2023-03-20T02:26:51.738Z,1016.19
2023-03-20T02:27:52.107Z,1016.29
2023-03-20T02:28:52.471Z,1016.23
2023-03-20T02:29:52.861Z,1016.13
2023-03-20T02:30:53.192Z,1016.17
2023-03-20T02:31:53.554Z,1016.15
2023-03-20T02:32:53.922Z,1016.14
2023-03-20T02:33:54.272Z,1016.15
2023-03-20T02:34:54.653Z,1016.14
2023-03-20T02:35:55.086Z,1016.15
2023-03-20T02:36:55.349Z,1016.12
2023-03-20T02:37:55.704Z,1016.14
2023-03-20T02:38:56.062Z,1016.09
2023-03-20T02:39:56.456Z,1016.10
2023-03-20T02:40:56.805Z,1016.14
2023-03-20T02:41:57.180Z,1016.12
2023-03-20T02:42:57.534Z,1016.01
2023-03-20T02:43:57.906Z,1016.05
2023-03-20T02:44:58.301Z,1016.06
2023-03-20T02:45:58.633Z,1016.00
2023-03-20T02:46:58.993Z,1016.00
2023-03-20T02:47:59.361Z,1016.02
2023-03-20T02:48:59.730Z,1016.02
2023-03-20T02:50:00.132Z,1015.98
2023-03-20T02:51:00.435Z,1016.03
2023-03-20T02:52:00.783Z,1016.07
2023-03-20T02:53:01.165Z,1016.07
2023-03-20T02:54:01.528Z,1016.06
2023-03-20T02:55:01.984Z,1015.95
2023-03-20T02:56:02.251Z,1016.06
2023-03-20T02:57:02.612Z,1015.99
2023-03-20T02:58:02.983Z,1016.06
2023-03-20T02:59:03.336Z,1016.03
2023-03-20T03:00:03.706Z,1016.00
2023-03-20T03:01:04.064Z,1016.07
2023-03-20T03:02:04.425Z,1016.07
2023-03-20T03:03:04.873Z,1016.05
2023-03-20T03:04:05.158Z,1016.03
2023-03-20T03:05:05.576Z,1016.01
2023-03-20T03:06:05.853Z,1016.02
2023-03-20T03:07:06.214Z,1016.06
2023-03-20T03:08:06.586Z,1016.03
2023-03-20T03:09:06.952Z,1015.98
2023-03-20T03:10:07.326Z,1016.03
2023-03-20T03:11:07.638Z,1016.00
2023-03-20T03:12:08.013Z,1015.99
2023-03-20T03:13:08.393Z,1016.03
2023-03-20T03:14:08.730Z,1015.94
2023-03-20T03:15:09.120Z,1015.96
2023-03-20T03:16:09.488Z,1015.94
2023-03-20T03:17:09.783Z,1015.93
2023-03-20T03:18:10.180Z,1015.91
2023-03-20T03:19:10.520Z,1015.92
2023-03-20T03:20:10.905Z,1015.90
2023-03-20T03:21:11.213Z,1015.88
2023-03-20T03:22:11.576Z,1015.89
2023-03-20T03:23:11.948Z,1015.83
2023-03-20T03:24:12.308Z,1015.84
2023-03-20T03:25:12.690Z,1015.82
2023-03-20T03:26:13.042Z,1015.81
2023-03-20T03:27:13.396Z,1015.83
2023-03-20T03:28:13.760Z,1015.93
2023-03-20T03:29:14.134Z,1015.82
2023-03-20T03:30:14.510Z,1015.80
2023-03-20T03:31:14.904Z,1015.83
2023-03-20T03:32:15.210Z,1015.82
2023-03-20T03:33:15.666Z,1015.79
2023-03-20T03:34:15.926Z,1015.83
2023-03-20T03:35:16.306Z,1015.81
2023-03-20T03:36:16.735Z,1015.86
2023-03-20T03:37:16.959Z,1015.84
2023-03-20T03:38:17.322Z,1015.86
2023-03-20T03:39:17.694Z,1015.86
2023-03-20T03:40:18.064Z,1015.81
2023-03-20T03:41:18.390Z,1015.79
2023-03-20T03:42:18.747Z,1015.77
2023-03-20T03:43:19.156Z,1015.75
2023-03-20T03:44:19.472Z,1015.74
2023-03-20T03:45:19.886Z,1015.71
2023-03-20T03:46:20.253Z,1015.66
2023-03-20T03:47:20.554Z,1015.67
2023-03-20T03:48:20.912Z,1015.71
2023-03-20T03:49:21.281Z,1015.65
2023-03-20T03:50:21.678Z,1015.68
2023-03-20T03:51:22.018Z,1015.67
2023-03-20T03:52:22.345Z,1015.74
2023-03-20T03:53:22.682Z,1015.67
2023-03-20T03:54:23.023Z,1015.75
2023-03-20T03:55:23.437Z,1015.71
2023-03-20T03:56:23.814Z,1015.75
2023-03-20T03:57:24.065Z,1015.75
2023-03-20T03:58:24.413Z,1015.75
2023-03-20T03:59:24.782Z,1015.78
2023-03-20T04:00:25.197Z,1015.73
2023-03-20T04:01:25.520Z,1015.73
2023-03-20T04:02:25.883Z,1015.71
2023-03-20T04:03:26.246Z,1015.81
2023-03-20T04:04:26.683Z,1015.75
2023-03-20T04:05:26.971Z,1015.71
2023-03-20T04:06:27.297Z,1015.71
2023-03-20T04:07:27.660Z,1015.72
2023-03-20T04:08:28.029Z,1015.75
2023-03-20T04:09:28.387Z,1015.72
2023-03-20T04:10:28.801Z,1015.77
2023-03-20T04:11:29.152Z,1015.74
2023-03-20T04:12:29.443Z,1015.75
2023-03-20T04:13:29.811Z,1015.78
2023-03-20T04:14:30.175Z,1015.77
2023-03-20T04:15:30.520Z,1015.77
2023-03-20T04:16:30.896Z,1015.80
2023-03-20T04:17:31.264Z,1015.73
2023-03-20T04:18:31.576Z,1015.65
2023-03-20T04:19:31.934Z,1015.69
2023-03-20T04:20:32.314Z,1015.71
2023-03-20T04:21:32.670Z,1015.69
2023-03-20T04:22:33.033Z,1015.67
2023-03-20T04:23:33.400Z,1015.70
2023-03-20T04:24:33.772Z,1015.64
2023-03-20T04:25:34.451Z,1015.63
2023-03-20T04:26:34.483Z,1015.65
2023-03-20T04:27:34.856Z,1015.68
2023-03-20T04:28:35.220Z,1015.67
2023-03-20T04:29:38.117Z,1015.72
2023-03-20T04:30:35.950Z,1015.72
2023-03-20T04:31:36.302Z,1015.70
2023-03-20T04:32:36.641Z,1015.72
2023-03-20T04:33:36.985Z,1015.68
2023-03-20T04:34:37.345Z,1015.70
2023-03-20T04:35:37.905Z,1015.72
2023-03-20T04:36:38.064Z,1015.68
2023-03-20T04:37:38.425Z,1015.64
2023-03-20T04:38:38.829Z,1015.67
2023-03-20T04:39:39.158Z,1015.67
2023-03-20T04:40:39.542Z,1015.70
2023-03-20T04:41:39.886Z,1015.65
2023-03-20T04:42:40.221Z,1015.68
2023-03-20T04:43:40.563Z,1015.67
2023-03-20T04:44:40.923Z,1015.65
2023-03-20T04:45:41.397Z,1015.69
2023-03-20T04:46:41.608Z,1015.69
2023-03-20T04:47:41.977Z,1015.71
2023-03-20T04:48:42.334Z,1015.65
2023-03-20T04:49:42.700Z,1015.66
2023-03-20T04:50:43.077Z,1015.63
2023-03-20T04:51:43.422Z,1015.65
2023-03-20T04:52:43.785Z,1015.66
2023-03-20T04:53:44.130Z,1015.64
2023-03-20T04:54:44.467Z,1015.67
2023-03-20T04:55:44.827Z,1015.70
2023-03-20T04:56:45.121Z,1015.72
2023-03-20T04:57:45.350Z,1015.72
2023-03-20T04:58:45.515Z,1015.72
2023-03-20T04:59:45.673Z,1015.70
2023-03-20T05:00:46.137Z,1015.72
2023-03-20T05:01:46.463Z,1015.74
2023-03-20T05:02:46.679Z,1015.75
2023-03-20T05:03:47.015Z,1015.71
2023-03-20T05:04:47.330Z,1015.69
2023-03-20T05:05:47.581Z,1015.68
2023-03-20T05:06:47.842Z,1015.70
2023-03-20T05:07:48.148Z,1015.70
2023-03-20T05:08:48.323Z,1015.69
2023-03-20T05:09:48.633Z,1015.68
2023-03-20T05:10:48.900Z,1015.73
2023-03-20T05:11:49.186Z,1015.67
2023-03-20T05:12:49.454Z,1015.67
2023-03-20T05:13:49.756Z,1015.70
2023-03-20T05:14:50.026Z,1015.71
2023-03-20T05:15:50.199Z,1015.67
2023-03-20T05:16:50.556Z,1015.68
2023-03-20T05:17:51.881Z,1015.74
2023-03-20T05:18:51.082Z,1015.70
2023-03-20T05:19:51.374Z,1015.72
2023-03-20T05:20:51.681Z,1015.71
2023-03-20T05:21:51.928Z,1015.69
2023-03-20T05:22:52.227Z,1015.75
2023-03-20T05:23:52.533Z,1015.71
2023-03-20T05:24:52.701Z,1015.75
2023-03-20T05:25:52.881Z,1015.74
2023-03-20T05:26:53.191Z,1015.74
2023-03-20T05:27:53.472Z,1015.76
2023-03-20T05:28:53.731Z,1015.79
2023-03-20T05:29:54.015Z,1015.75
2023-03-20T05:30:54.336Z,1015.83
2023-03-20T05:31:54.576Z,1015.80
2023-03-20T05:32:54.912Z,1015.84
2023-03-20T05:33:55.177Z,1015.87
2023-03-20T05:34:55.473Z,1015.82
2023-03-20T05:35:55.828Z,1015.88
2023-03-20T05:36:56.076Z,1015.88
2023-03-20T05:37:56.367Z,1015.93
2023-03-20T05:38:56.671Z,1015.89
2023-03-20T05:39:56.836Z,1015.93
2023-03-20T05:40:57.044Z,1015.92
2023-03-20T05:41:57.305Z,1015.89
2023-03-20T05:42:57.510Z,1015.91
2023-03-20T05:43:57.668Z,1015.90
2023-03-20T05:44:57.857Z,1015.95
2023-03-20T05:45:58.177Z,1015.93
2023-03-20T05:46:58.217Z,1015.92
2023-03-20T05:47:58.379Z,1015.94
2023-03-20T05:48:58.563Z,1015.94
2023-03-20T05:49:58.752Z,1016.01
2023-03-20T05:50:58.949Z,1015.97
2023-03-20T05:51:59.087Z,1015.96
2023-03-20T05:52:59.383Z,1015.99
2023-03-20T05:53:59.678Z,1016.02
2023-03-20T05:54:59.976Z,1015.99
2023-03-20T05:56:00.158Z,1016.10
2023-03-20T05:57:00.360Z,1016.06
2023-03-20T05:58:00.494Z,1016.01
2023-03-20T05:59:00.708Z,1016.07
2023-03-20T06:00:00.947Z,1016.00
2023-03-20T06:01:01.154Z,1016.04
2023-03-20T06:02:01.327Z,1015.99
2023-03-20T06:03:01.553Z,1015.96
2023-03-20T06:04:01.716Z,1015.92
2023-03-20T06:05:01.855Z,1015.94
2023-03-20T06:06:02.053Z,1015.93
2023-03-20T06:07:02.322Z,1015.87
2023-03-20T06:08:02.640Z,1015.92
2023-03-20T06:09:02.811Z,1015.93
2023-03-20T06:10:02.977Z,1015.93
2023-03-20T06:11:03.281Z,1015.96
2023-03-20T06:12:03.559Z,1015.97
2023-03-20T06:13:03.843Z,1016.05
2023-03-20T06:14:04.175Z,1016.04
2023-03-20T06:15:04.429Z,1016.03
2023-03-20T06:16:04.786Z,1016.08
2023-03-20T06:17:04.897Z,1016.10
2023-03-20T06:18:05.197Z,1016.11
2023-03-20T06:19:05.567Z,1016.13
2023-03-20T06:20:05.674Z,1016.16
2023-03-20T06:21:06.746Z,1016.16
2023-03-20T06:22:06.238Z,1016.14
2023-03-20T06:23:06.535Z,1016.15
2023-03-20T06:24:06.810Z,1016.07
2023-03-20T06:25:06.985Z,1016.09
2023-03-20T06:26:07.197Z,1016.09
2023-03-20T06:27:07.340Z,1016.15
2023-03-20T06:28:07.526Z,1016.14
2023-03-20T06:29:07.694Z,1016.14
2023-03-20T06:30:07.859Z,1016.12
2023-03-20T06:31:08.077Z,1016.10
2023-03-20T06:32:08.337Z,1016.11
2023-03-20T06:33:08.560Z,1016.16
2023-03-20T06:34:08.709Z,1016.14
2023-03-20T06:35:08.864Z,1016.10
2023-03-20T06:36:09.043Z,1016.15
2023-03-20T06:37:09.263Z,1016.24
2023-03-20T06:38:09.402Z,1016.27
2023-03-20T06:39:09.568Z,1016.13
2023-03-20T06:40:09.752Z,1016.14
2023-03-20T06:41:09.934Z,1016.15
2023-03-20T06:42:10.113Z,1016.17
2023-03-20T06:43:10.392Z,1016.17
2023-03-20T06:44:10.560Z,1016.14
2023-03-20T06:45:10.720Z,1016.15
2023-03-20T06:46:11.135Z,1016.17
2023-03-20T06:47:11.212Z,1016.17
2023-03-20T06:48:11.376Z,1016.19
2023-03-20T06:49:11.530Z,1016.15
2023-03-20T06:50:11.702Z,1016.25
2023-03-20T06:51:11.890Z,1016.21
2023-03-20T06:52:12.083Z,1016.19
2023-03-20T06:53:12.357Z,1016.23
2023-03-20T06:54:12.519Z,1016.23
2023-03-20T06:55:12.697Z,1016.25
2023-03-20T06:56:12.870Z,1016.23
2023-03-20T06:57:15.206Z,1016.27
2023-03-20T06:58:13.221Z,1016.27
2023-03-20T06:59:13.396Z,1016.30
2023-03-20T07:00:13.572Z,1016.28
2023-03-20T07:01:13.756Z,1016.34
2023-03-20T07:02:13.983Z,1016.25
2023-03-20T07:03:14.069Z,1016.28
2023-03-20T07:04:14.239Z,1016.25
2023-03-20T07:05:14.600Z,1016.25
2023-03-20T07:06:14.592Z,1016.22
2023-03-20T07:07:14.780Z,1016.22
2023-03-20T07:08:14.930Z,1016.25
2023-03-20T07:09:15.099Z,1016.28
2023-03-20T07:10:15.277Z,1016.21
2023-03-20T07:11:15.450Z,1016.24
2023-03-20T07:12:15.633Z,1016.24
2023-03-20T07:13:15.786Z,1016.27
2023-03-20T07:14:15.956Z,1016.34
2023-03-20T07:15:16.141Z,1016.31
2023-03-20T07:16:16.368Z,1016.29
2023-03-20T07:17:16.620Z,1016.32
2023-03-20T07:18:16.758Z,1016.29
2023-03-20T07:19:16.923Z,1016.31
2023-03-20T07:20:17.095Z,1016.20
2023-03-20T07:21:17.415Z,1016.27
2023-03-20T07:22:17.589Z,1016.32
2023-03-20T07:23:17.745Z,1016.22
2023-03-20T07:24:18.071Z,1016.30
2023-03-20T07:25:21.995Z,1016.22
2023-03-20T07:26:18.434Z,1016.24
2023-03-20T07:27:18.643Z,1016.23
2023-03-20T07:28:18.755Z,1016.26
2023-03-20T07:29:18.915Z,1016.27
2023-03-20T07:30:19.098Z,1016.29
2023-03-20T07:31:19.331Z,1016.31
2023-03-20T07:32:19.439Z,1016.28
2023-03-20T07:33:19.703Z,1016.36
2023-03-20T07:34:19.917Z,1016.30
2023-03-20T07:35:20.073Z,1016.34
2023-03-20T07:36:20.286Z,1016.31
2023-03-20T07:37:20.452Z,1016.27
2023-03-20T07:38:20.617Z,1016.35
2023-03-20T07:39:20.794Z,1016.39
2023-03-20T07:40:20.968Z,1016.34
2023-03-20T07:41:21.166Z,1016.36
2023-03-20T07:42:21.316Z,1016.46
2023-03-20T07:43:21.620Z,1016.49
2023-03-20T07:44:21.823Z,1016.43
2023-03-20T07:45:21.975Z,1016.49
2023-03-20T07:46:22.262Z,1016.50
2023-03-20T07:47:22.325Z,1016.42
2023-03-20T07:48:22.483Z,1016.41
2023-03-20T07:49:22.801Z,1016.40
2023-03-20T07:50:22.963Z,1016.39
2023-03-20T07:51:23.153Z,1016.40
2023-03-20T07:52:23.323Z,1016.42
2023-03-20T07:53:23.481Z,1016.44
2023-03-20T07:54:23.648Z,1016.41
2023-03-20T07:55:23.812Z,1016.43
2023-03-20T07:56:24.000Z,1016.43
2023-03-20T07:57:24.166Z,1016.45
2023-03-20T07:58:24.642Z,1016.43
2023-03-20T07:59:24.496Z,1016.43
2023-03-20T08:00:26.794Z,1016.46
2023-03-20T08:01:24.860Z,1016.40
2023-03-20T08:02:25.000Z,1016.51
2023-03-20T08:03:25.343Z,1016.50
2023-03-20T08:04:25.345Z,1016.47
2023-03-20T08:05:25.506Z,1016.46
2023-03-20T08:06:25.710Z,1016.45
2023-03-20T08:07:25.873Z,1016.47
2023-03-20T08:08:26.051Z,1016.49
2023-03-20T08:09:26.218Z,1016.51
2023-03-20T08:10:26.622Z,1016.52
2023-03-20T08:11:26.576Z,1016.52
2023-03-20T08:12:26.748Z,1016.49
2023-03-20T08:13:26.918Z,1016.53
2023-03-20T08:14:27.306Z,1016.50
2023-03-20T08:15:27.271Z,1016.56
2023-03-20T08:16:27.553Z,1016.56
2023-03-20T08:17:27.700Z,1016.58
2023-03-20T08:18:28.193Z,1016.61
2023-03-20T08:19:28.093Z,1016.56
2023-03-20T08:20:28.273Z,1016.58
2023-03-20T08:21:28.450Z,1016.60
2023-03-20T08:22:28.621Z,1016.65
2023-03-20T08:23:28.788Z,1016.62
2023-03-20T08:24:28.944Z,1016.61
2023-03-20T08:25:29.120Z,1016.62
2023-03-20T08:26:29.317Z,1016.63
2023-03-20T08:27:29.469Z,1016.61
2023-03-20T08:28:46.190Z,1016.66
2023-03-20T08:29:29.845Z,1016.72
2023-03-20T08:30:30.091Z,1016.71
2023-03-20T08:31:30.196Z,1016.72
2023-03-20T08:32:30.354Z,1016.69
2023-03-20T08:33:30.534Z,1016.71
2023-03-20T08:34:30.842Z,1016.75
2023-03-20T08:35:33.619Z,1016.77
2023-03-20T08:36:31.240Z,1016.72
2023-03-20T08:37:31.395Z,1016.71
2023-03-20T08:38:31.563Z,1016.74
2023-03-20T08:39:31.749Z,1016.70
2023-03-20T08:40:31.926Z,1016.66
2023-03-20T08:41:32.093Z,1016.64
2023-03-20T08:42:32.271Z,1016.73
2023-03-20T08:43:32.424Z,1016.73
2023-03-20T08:44:32.729Z,1016.76
2023-03-20T08:45:32.893Z,1016.72
2023-03-20T08:46:33.115Z,1016.76
2023-03-20T08:47:33.249Z,1016.71
2023-03-20T08:48:33.555Z,1016.73
2023-03-20T08:49:33.783Z,1016.69
2023-03-20T08:50:33.912Z,1016.69
2023-03-20T08:51:34.103Z,1016.69
2023-03-20T08:52:34.283Z,1016.69
2023-03-20T08:53:34.466Z,1016.66
2023-03-20T08:54:34.653Z,1016.71
2023-03-20T08:55:35.058Z,1016.70
2023-03-20T08:56:35.005Z,1016.68
2023-03-20T08:57:35.176Z,1016.69
2023-03-20T08:58:35.470Z,1016.72
2023-03-20T08:59:35.774Z,1016.70
2023-03-20T09:00:35.945Z,1016.72
2023-03-20T09:01:48.854Z,1016.67
2023-03-20T09:02:36.442Z,1016.71
2023-03-20T09:03:36.441Z,1016.68
2023-03-20T09:04:36.641Z,1016.67
2023-03-20T09:05:37.155Z,1016.68
2023-03-20T09:06:37.020Z,1016.66
2023-03-20T09:07:37.148Z,1016.70
2023-03-20T09:08:37.298Z,1016.64
2023-03-20T09:09:37.472Z,1016.66
2023-03-20T09:10:37.698Z,1016.67
2023-03-20T09:11:37.829Z,1016.69
2023-03-20T09:12:38.003Z,1016.67
2023-03-20T09:13:38.180Z,1016.71
2023-03-20T09:14:38.376Z,1016.71
2023-03-20T09:15:38.872Z,1016.68
2023-03-20T09:16:38.846Z,1016.63
2023-03-20T09:17:38.904Z,1016.71
2023-03-20T09:18:39.075Z,1016.66
2023-03-20T09:19:39.251Z,1016.63
2023-03-20T09:20:39.400Z,1016.64
2023-03-20T09:21:39.713Z,1016.65
2023-03-20T09:22:39.874Z,1016.63
2023-03-20T09:23:40.085Z,1016.63
2023-03-20T09:24:40.231Z,1016.59
2023-03-20T09:25:40.401Z,1016.61
2023-03-20T09:26:40.576Z,1016.62
2023-03-20T09:27:40.733Z,1016.56
2023-03-20T09:28:40.899Z,1016.56
2023-03-20T09:29:41.066Z,1016.63
2023-03-20T09:30:41.240Z,1016.68
2023-03-20T09:31:41.433Z,1016.61
2023-03-20T09:32:41.612Z,1016.70
2023-03-20T09:33:41.756Z,1016.70
2023-03-20T09:34:41.930Z,1016.70
2023-03-20T09:35:43.661Z,1016.66
2023-03-20T09:36:42.292Z,1016.71
2023-03-20T09:37:42.479Z,1016.74
2023-03-20T09:38:42.648Z,1016.70
2023-03-20T09:39:42.815Z,1016.79
2023-03-20T09:40:43.113Z,1016.74
2023-03-20T09:41:56.186Z,1016.76
2023-03-20T09:42:43.483Z,1016.72
2023-03-20T09:43:43.638Z,1016.74
2023-03-20T09:44:43.939Z,1016.73
2023-03-20T09:45:44.183Z,1016.82
2023-03-20T09:46:44.421Z,1016.81
2023-03-20T09:47:44.497Z,1016.73
2023-03-20T09:48:44.804Z,1016.84
2023-03-20T09:49:45.114Z,1016.89
2023-03-20T09:50:45.263Z,1016.91
2023-03-20T09:51:45.579Z,1016.86
2023-03-20T09:52:45.747Z,1016.90
2023-03-20T09:53:46.051Z,1016.84
2023-03-20T09:54:54.205Z,1016.91
2023-03-20T09:55:46.438Z,1016.85
2023-03-20T09:56:46.704Z,1016.90
2023-03-20T09:57:46.781Z,1016.88
2023-03-20T09:58:46.924Z,1016.96
2023-03-20T09:59:47.233Z,1016.90
2023-03-20T10:00:47.399Z,1016.91
2023-03-20T10:01:47.632Z,1016.81
2023-03-20T10:02:47.734Z,1016.83
2023-03-20T10:03:48.043Z,1016.83
2023-03-20T10:04:48.367Z,1016.82
2023-03-20T10:05:48.507Z,1016.77
2023-03-20T10:06:48.837Z,1016.77
2023-03-20T10:07:48.998Z,1016.77
2023-03-20T10:08:49.176Z,1016.75
2023-03-20T10:09:49.386Z,1016.75
2023-03-20T10:10:49.549Z,1016.72
2023-03-20T10:11:49.758Z,1016.72
2023-03-20T10:12:49.921Z,1016.74
2023-03-20T10:13:50.098Z,1016.73
2023-03-20T10:14:50.263Z,1016.73
2023-03-20T10:15:50.449Z,1016.73
2023-03-20T10:16:50.747Z,1016.77
2023-03-20T10:17:50.919Z,1016.78
2023-03-20T10:18:51.088Z,1016.73
2023-03-20T10:19:51.264Z,1016.70
2023-03-20T10:20:51.418Z,1016.74
2023-03-20T10:21:51.606Z,1016.73
2023-03-20T10:22:51.786Z,1016.74
2023-03-20T10:23:51.936Z,1016.73
2023-03-20T10:24:52.109Z,1016.66
2023-03-20T10:25:52.288Z,1016.73
2023-03-20T10:26:52.455Z,1016.68
2023-03-20T10:27:52.752Z,1016.65
2023-03-20T10:28:52.836Z,1016.69
2023-03-20T10:29:52.992Z,1016.69
2023-03-20T10:30:53.273Z,1016.69
2023-03-20T10:31:53.649Z,1016.63
2023-03-20T10:32:53.774Z,1016.64
2023-03-20T10:33:53.935Z,1016.59
2023-03-20T10:34:54.100Z,1016.55
2023-03-20T10:35:54.322Z,1016.58
2023-03-20T10:36:54.457Z,1016.58
2023-03-20T10:37:54.636Z,1016.48
2023-03-20T10:38:54.789Z,1016.54
2023-03-20T10:39:54.994Z,1016.63
2023-03-20T10:40:55.142Z,1016.58
2023-03-20T10:41:55.343Z,1016.56
2023-03-20T10:42:55.477Z,1016.51
2023-03-20T10:43:55.646Z,1016.46
2023-03-20T10:44:55.950Z,1016.53
2023-03-20T10:45:56.127Z,1016.60
2023-03-20T10:46:56.512Z,1016.52
2023-03-20T10:47:56.655Z,1016.57
2023-03-20T10:48:56.817Z,1016.57
2023-03-20T10:49:57.004Z,1016.57
2023-03-20T10:50:57.283Z,1016.54
2023-03-20T10:51:57.600Z,1016.58
2023-03-20T10:52:57.635Z,1016.48
2023-03-20T10:53:57.828Z,1016.46
2023-03-20T10:54:57.993Z,1016.39
2023-03-20T10:55:58.318Z,1016.36
2023-03-20T10:56:58.490Z,1016.36
2023-03-20T10:57:58.651Z,1016.31
2023-03-20T10:58:58.808Z,1016.33
2023-03-20T10:59:59.117Z,1016.34
2023-03-20T11:00:59.370Z,1016.38
2023-03-20T11:01:59.491Z,1016.40
2023-03-20T11:02:59.644Z,1016.43
2023-03-20T11:03:59.870Z,1016.42
2023-03-20T11:04:59.987Z,1016.42
2023-03-20T11:06:09.377Z,1016.45
2023-03-20T11:07:00.376Z,1016.38
2023-03-20T11:08:00.528Z,1016.38
2023-03-20T11:09:00.832Z,1016.45
2023-03-20T11:10:01.144Z,1016.39
2023-03-20T11:11:01.301Z,1016.36
2023-03-20T11:12:01.485Z,1016.37
2023-03-20T11:13:01.649Z,1016.40
2023-03-20T11:14:01.819Z,1016.40
2023-03-20T11:15:01.989Z,1016.35
2023-03-20T11:16:02.298Z,1016.29
2023-03-20T11:17:02.585Z,1016.33
2023-03-20T11:18:02.665Z,1016.37
2023-03-20T11:19:05.509Z,1016.32
2023-03-20T11:20:03.053Z,1016.30
2023-03-20T11:21:03.192Z,1016.30
2023-03-20T11:22:03.504Z,1016.29
2023-03-20T11:23:03.669Z,1016.24
2023-03-20T11:24:03.836Z,1016.19
2023-03-20T11:25:04.005Z,1016.25
2023-03-20T11:26:04.175Z,1016.24
2023-03-20T11:27:04.354Z,1016.22
2023-03-20T11:28:04.522Z,1016.20
2023-03-20T11:29:04.697Z,1016.22
2023-03-20T11:30:04.906Z,1016.19
2023-03-20T11:31:05.654Z,1016.25
2023-03-20T11:32:05.276Z,1016.23
2023-03-20T11:33:05.478Z,1016.22
2023-03-20T11:34:05.630Z,1016.22
2023-03-20T11:35:05.818Z,1016.18
2023-03-20T11:36:05.995Z,1016.19
2023-03-20T11:37:10.519Z,1016.12
2023-03-20T11:38:06.356Z,1016.13
2023-03-20T11:39:06.528Z,1016.12
2023-03-20T11:40:06.709Z,1016.15
2023-03-20T11:41:06.895Z,1016.07
2023-03-20T11:42:07.101Z,1016.08
2023-03-20T11:43:07.277Z,1016.09
2023-03-20T11:44:07.482Z,1016.10
2023-03-20T11:45:07.664Z,1016.05
2023-03-20T11:46:07.915Z,1016.06
2023-03-20T11:47:08.102Z,1016.05
2023-03-20T11:48:08.271Z,1016.03
2023-03-20T11:49:08.438Z,1016.02
2023-03-20T11:50:08.620Z,1016.03
2023-03-20T11:51:08.799Z,1016.05
2023-03-20T11:52:09.010Z,1016.07
2023-03-20T11:53:09.179Z,1016.06
2023-03-20T11:54:09.367Z,1016.04
2023-03-20T11:55:09.556Z,1016.07
2023-03-20T11:56:09.760Z,1016.09
2023-03-20T11:57:09.961Z,1016.09
2023-03-20T11:58:10.168Z,1016.06
2023-03-20T11:59:10.357Z,1016.04
2023-03-20T12:00:10.524Z,1016.02
2023-03-20T12:01:10.714Z,1016.01
2023-03-20T12:02:10.953Z,1016.02
2023-03-20T12:03:11.110Z,1015.98
2023-03-20T12:04:11.275Z,1015.96
2023-03-20T12:05:13.286Z,1015.99
2023-03-20T12:06:11.637Z,1015.94
2023-03-20T12:07:11.864Z,1015.99
2023-03-20T12:08:11.993Z,1016.03
2023-03-20T12:09:12.192Z,1016.01